URWW

Volgograd International Airport

Volgograd, Russian Federation
TAF URWW 200157Z 2003/2012 13003G08MPS 0200 FG OVC001 TEMPO 2003/2009 16003G08MPS 3100 -DZ BR OVC003 FM200900 16005G10MPS 3100 BR BKN011
Issued Valid From Valid To
Oct-20 @ 01:57 UTC
(an hour ago)
Oct-20 @ 03:00 UTC
(10 minutes ago)
Oct-20 @ 12:00 UTC
(in 9 hours)
Oct-20 @ 03:00 to Oct-20 @ 09:00
TAF URWW 200157Z 2003/2012 13003G08MPS 0200 FG OVC001
Wind Visibility Clouds Conditions
130° at 6 knots
 Gusting to 16 knots
193 meters
  • Overcast at 100' AGL
  • Fog
Temporary Oct-20 @ 03:00 to Oct-20 @ 09:00
TEMPO 2003/2009 16003G08MPS 3100 -DZ BR OVC003
Wind Visibility Clouds Conditions
160° at 6 knots
 Gusting to 16 knots
3,106 meters
  • Overcast at 300' AGL
  • Light Drizzle
  • Mist
From Oct-20 @ 09:00 to Oct-20 @ 12:00
FM200900 16005G10MPS 3100 BR BKN011
Wind Visibility Clouds Conditions
160° at 10 knots
 Gusting to 19 knots
3,106 meters
  • Broken at 1,100' AGL
  • Mist
TAF URWW 200157Z 2003/2012 13003G08MPS 0200 FG OVC001 TEMPO 2003/2009 16003G08MPS 3100 -DZ BR OVC003 FM200900 16005G10MPS 3100 BR BKN011
Issued Oct-20 @ 01:57 UTC
(an hour ago)
Valid From Oct-20 @ 03:00 UTC
(10 minutes ago)
Valid To Oct-20 @ 12:00 UTC
(in 9 hours)
Oct-20 @ 03:00 - Oct-20 @ 09:00
Wind Visibility
130° at 6 knots
 Gusting to 16 knots
193 meters
Clouds
  • Overcast at 100' AGL
Conditions
  • Fog
Temporary Oct-20 @ 03:00 - Oct-20 @ 09:00
Wind Visibility
160° at 6 knots
 Gusting to 16 knots
3,106 meters
Clouds
  • Overcast at 300' AGL
Conditions
  • Light Drizzle
  • Mist
From Oct-20 @ 09:00 - Oct-20 @ 12:00
Wind Visibility
160° at 10 knots
 Gusting to 19 knots
3,106 meters
Clouds
  • Broken at 1,100' AGL
Conditions
  • Mist